AMS weather

Amsterdam Airport Schiphol
Amsterdam, Noord-Holland, Netherlands

Public forecast

Using degrees Celsius for public forecast. Weather courtesy of forecast.io.

Current aviation weather report (METAR) for Amsterdam Airport Schiphol

Retrieved 2019/10/13 18:25 UTC (29 minutes ago):

EHAM 131825Z 23016KT 9999 FEW025 16/13 Q1006 NOSIG

Aviation forecast (TAF) for Amsterdam Airport Schiphol

Retrieved 2019/10/13 18:28 UTC (26 minutes ago):

TAF EHAM 131718Z 1318/1424 24015KT 9999 SCT030 BECMG 1400/1403 20005KT PROB30 TEMPO 1404/1407 VRB03KT 6000 MIFG BECMG 1409/1412 09012KT PROB40 TEMPO 1409/1412 6000 RA PROB40 TEMPO 1412/1414 5000 SHRA TSRA SCT050CB PROB40 TEMPO 1418/1422 4000 BR BECMG 1419/1422 12008KT